createdAt,value
2022-11-27T00:03:59.792Z,8.60
2022-11-27T00:09:53.361Z,8.60
2022-11-27T00:15:48.366Z,8.60
2022-11-27T00:21:41.900Z,8.60
2022-11-27T00:27:35.411Z,8.60
2022-11-27T00:33:30.145Z,8.60
2022-11-27T00:39:23.511Z,8.50
2022-11-27T00:45:16.817Z,8.50
2022-11-27T00:51:15.209Z,8.40
2022-11-27T00:57:09.050Z,8.40
2022-11-27T01:03:02.658Z,8.50
2022-11-27T01:08:58.527Z,8.20
2022-11-27T01:14:52.253Z,8.20
2022-11-27T01:20:45.773Z,8.20
2022-11-27T01:26:40.958Z,8.30
2022-11-27T01:32:34.048Z,8.40
2022-11-27T01:38:28.412Z,8.40
2022-11-27T01:44:54.872Z,8.30
2022-11-27T01:50:48.387Z,8.00
2022-11-27T01:56:43.324Z,7.80
2022-11-27T02:02:38.294Z,7.80
2022-11-27T02:08:31.959Z,7.90
2022-11-27T02:14:32.303Z,8.10
2022-11-27T02:20:36.745Z,8.00
2022-11-27T02:26:52.035Z,8.10
2022-11-27T02:32:53.009Z,8.20
2022-11-27T02:38:50.217Z,8.20
2022-11-27T02:44:48.297Z,8.20
2022-11-27T02:50:45.746Z,8.10
2022-11-27T02:56:41.097Z,8.10
2022-11-27T03:02:37.343Z,8.10
2022-11-27T03:08:36.735Z,8.00
2022-11-27T03:14:30.504Z,8.00
2022-11-27T03:20:27.624Z,7.90
2022-11-27T03:26:22.479Z,8.00
2022-11-27T03:32:16.433Z,8.00
2022-11-27T03:38:09.925Z,8.00
2022-11-27T03:44:11.875Z,7.90
2022-11-27T03:50:20.356Z,7.90
2022-11-27T03:56:18.577Z,7.60
2022-11-27T04:02:15.437Z,7.50
2022-11-27T04:08:08.536Z,7.50
2022-11-27T04:14:01.794Z,7.50
2022-11-27T04:19:56.636Z,7.50
2022-11-27T04:25:50.094Z,7.30
2022-11-27T04:31:43.260Z,6.90
2022-11-27T04:37:38.498Z,6.90
2022-11-27T04:43:31.580Z,6.50
2022-11-27T04:49:25.049Z,6.30
2022-11-27T04:55:19.497Z,6.50
2022-11-27T05:01:13.263Z,6.80
2022-11-27T05:07:06.805Z,6.60
2022-11-27T05:13:01.609Z,6.90
2022-11-27T05:18:54.640Z,7.10
2022-11-27T05:24:47.644Z,7.00
2022-11-27T05:30:42.584Z,7.00
2022-11-27T05:36:36.894Z,7.20
2022-11-27T05:42:30.385Z,7.30
2022-11-27T05:48:24.869Z,7.20
2022-11-27T05:54:17.989Z,7.10
2022-11-27T06:00:12.399Z,7.10
2022-11-27T06:06:09.338Z,6.70
2022-11-27T06:12:02.428Z,6.90
2022-11-27T06:17:55.563Z,7.00
2022-11-27T06:23:50.454Z,7.10
2022-11-27T06:29:43.939Z,6.90
2022-11-27T06:35:37.470Z,6.90
2022-11-27T06:41:32.209Z,7.10
2022-11-27T06:47:25.823Z,7.10
2022-11-27T06:53:19.476Z,7.00
2022-11-27T06:59:15.400Z,7.00
2022-11-27T07:05:09.001Z,7.10
2022-11-27T07:11:03.034Z,7.10
2022-11-27T07:16:57.423Z,7.10
2022-11-27T07:22:50.745Z,7.10
2022-11-27T07:28:44.938Z,7.10
2022-11-27T07:35:18.762Z,6.80
2022-11-27T07:41:14.652Z,6.90
2022-11-27T07:47:07.823Z,6.80
2022-11-27T07:53:02.227Z,6.90
2022-11-27T07:58:57.717Z,6.90
2022-11-27T08:04:51.377Z,6.90
2022-11-27T08:10:45.181Z,7.00
2022-11-27T08:16:39.848Z,6.90
2022-11-27T08:22:33.568Z,6.50
2022-11-27T08:28:27.932Z,6.60
2022-11-27T08:34:22.897Z,6.90
2022-11-27T08:40:16.704Z,7.00
2022-11-27T08:46:10.755Z,7.00
2022-11-27T08:52:06.231Z,7.10
2022-11-27T08:57:59.800Z,7.00
2022-11-27T09:03:53.558Z,7.10
2022-11-27T09:09:49.056Z,7.00
2022-11-27T09:15:42.643Z,6.70
2022-11-27T09:21:35.791Z,6.90
2022-11-27T09:27:30.931Z,6.90
2022-11-27T09:33:24.943Z,6.90
2022-11-27T09:39:19.498Z,7.10
2022-11-27T09:45:17.459Z,6.70
2022-11-27T09:51:17.004Z,7.00
2022-11-27T09:57:15.511Z,7.20
2022-11-27T10:03:15.559Z,7.20
2022-11-27T10:09:20.648Z,7.30
2022-11-27T10:15:20.630Z,7.50
2022-11-27T10:21:22.929Z,7.60
2022-11-27T10:27:21.586Z,7.50
2022-11-27T10:33:21.201Z,7.40
2022-11-27T10:39:22.566Z,7.30
2022-11-27T10:45:23.589Z,7.10
2022-11-27T10:51:20.594Z,7.40
2022-11-27T10:57:25.933Z,7.60
2022-11-27T11:03:19.625Z,7.70
2022-11-27T11:09:19.248Z,7.60
2022-11-27T11:15:15.368Z,7.70
2022-11-27T11:21:17.279Z,7.70
2022-11-27T11:27:16.111Z,7.70
2022-11-27T11:33:14.815Z,7.80
2022-11-27T11:39:08.845Z,7.70
2022-11-27T11:45:06.440Z,7.90
2022-11-27T11:51:06.183Z,7.90
2022-11-27T11:57:04.368Z,7.90
2022-11-27T12:03:15.180Z,7.90
2022-11-27T12:09:31.686Z,7.80
2022-11-27T12:15:31.332Z,7.80
2022-11-27T12:21:30.193Z,7.90
2022-11-27T12:27:46.306Z,7.90
2022-11-27T12:33:58.942Z,7.90
2022-11-27T12:40:06.934Z,7.90
2022-11-27T12:46:05.773Z,7.90
2022-11-27T12:52:11.120Z,8.00
2022-11-27T12:58:08.423Z,8.10
2022-11-27T13:04:13.909Z,7.90
2022-11-27T13:10:22.694Z,7.90
2022-11-27T13:16:23.137Z,8.00
2022-11-27T13:22:22.066Z,8.00
2022-11-27T13:28:25.664Z,7.80
2022-11-27T13:34:22.849Z,7.80
2022-11-27T13:40:24.839Z,7.70
2022-11-27T13:46:23.739Z,7.80
2022-11-27T13:52:20.243Z,8.00
2022-11-27T13:58:15.164Z,7.70
2022-11-27T14:04:10.690Z,7.70
2022-11-27T14:10:10.520Z,7.70
2022-11-27T14:16:10.860Z,7.70
2022-11-27T14:22:16.164Z,7.60
2022-11-27T14:28:17.394Z,7.60
2022-11-27T14:34:28.049Z,7.70
2022-11-27T14:40:24.488Z,7.40
2022-11-27T14:46:20.942Z,7.80
2022-11-27T14:52:18.762Z,7.60
2022-11-27T14:58:19.586Z,7.60
2022-11-27T15:04:14.838Z,7.50
2022-11-27T15:10:23.466Z,7.50
2022-11-27T15:16:19.817Z,7.60
2022-11-27T15:22:18.239Z,7.70
2022-11-27T15:28:34.067Z,7.90
2022-11-27T15:34:31.525Z,7.90
2022-11-27T15:40:30.609Z,7.90
2022-11-27T15:46:30.566Z,7.90
2022-11-27T15:52:24.522Z,7.90
2022-11-27T15:58:18.246Z,7.90
2022-11-27T16:04:13.246Z,7.90
2022-11-27T16:10:08.128Z,7.90
2022-11-27T16:16:03.542Z,7.90
2022-11-27T16:21:58.549Z,7.90
2022-11-27T16:27:52.100Z,7.80
2022-11-27T16:33:45.731Z,7.80
2022-11-27T16:39:41.616Z,7.80
2022-11-27T16:45:37.977Z,7.70
2022-11-27T16:51:33.854Z,7.70
2022-11-27T16:57:28.776Z,7.60
2022-11-27T17:03:23.279Z,7.60
2022-11-27T17:09:17.125Z,7.60
2022-11-27T17:15:13.447Z,7.70
2022-11-27T17:21:09.556Z,7.70
2022-11-27T17:27:03.337Z,7.70
2022-11-27T17:32:58.580Z,7.60
2022-11-27T17:38:52.424Z,7.70
2022-11-27T17:44:46.238Z,7.70
2022-11-27T17:50:41.264Z,7.60
2022-11-27T17:56:36.321Z,7.60
2022-11-27T18:02:30.710Z,7.70
2022-11-27T18:08:26.025Z,7.70
2022-11-27T18:14:19.615Z,7.70
2022-11-27T18:20:13.649Z,7.60
2022-11-27T18:26:09.698Z,7.70
2022-11-27T18:32:03.399Z,7.70
2022-11-27T18:37:56.987Z,7.70
2022-11-27T18:43:52.916Z,7.70
2022-11-27T18:49:48.735Z,7.70
2022-11-27T18:55:42.496Z,7.70
2022-11-27T19:01:42.258Z,7.70
2022-11-27T19:07:36.296Z,7.70
2022-11-27T19:13:30.881Z,7.60
2022-11-27T19:25:42.500Z,7.30
2022-11-27T19:31:38.027Z,7.50
2022-11-27T19:37:34.727Z,7.50
2022-11-27T19:43:29.440Z,7.50
2022-11-27T19:49:24.051Z,7.60
2022-11-27T19:55:18.869Z,7.60
2022-11-27T20:01:14.209Z,7.60
2022-11-27T20:07:08.221Z,7.50
2022-11-27T20:13:04.029Z,7.50
2022-11-27T20:18:57.924Z,7.50
2022-11-27T20:25:17.208Z,7.40
2022-11-27T20:31:06.570Z,7.40
2022-11-27T20:36:59.756Z,7.30
2022-11-27T20:42:54.322Z,7.40
2022-11-27T20:48:50.474Z,7.40
2022-11-27T20:54:44.237Z,7.40
2022-11-27T21:00:40.574Z,7.40
2022-11-27T21:06:40.510Z,7.40
2022-11-27T21:12:37.202Z,7.30
2022-11-27T21:18:30.377Z,7.30
2022-11-27T21:24:27.936Z,7.50
2022-11-27T21:30:22.059Z,7.50
2022-11-27T21:36:16.308Z,7.40
2022-11-27T21:42:11.453Z,7.60
2022-11-27T21:48:06.348Z,7.50
2022-11-27T21:54:01.818Z,7.50
2022-11-27T21:59:56.704Z,7.50
2022-11-27T22:05:58.132Z,7.50
2022-11-27T22:11:54.081Z,7.50
2022-11-27T22:17:48.603Z,7.50
2022-11-27T22:23:42.421Z,7.50
2022-11-27T22:29:36.396Z,7.50
2022-11-27T22:35:31.547Z,7.40
2022-11-27T22:41:27.471Z,7.40
2022-11-27T22:47:20.817Z,7.50
2022-11-27T22:53:15.616Z,7.50
2022-11-27T22:59:31.763Z,7.40
2022-11-27T23:05:24.152Z,7.40
2022-11-27T23:11:21.006Z,7.40
2022-11-27T23:17:14.515Z,7.30
2022-11-27T23:23:07.636Z,7.30
2022-11-27T23:29:02.957Z,7.30
2022-11-27T23:34:56.073Z,7.20
2022-11-27T23:40:49.610Z,7.20
2022-11-27T23:46:44.510Z,7.30
2022-11-27T23:52:38.090Z,7.30
2022-11-27T23:58:31.382Z,7.30
